Time;durP1;ratioP1;P1;durP2;ratioP2;P2;SDS_P1;SDS_P2;PMS_P1;PMS_P2;Temp;Humidity;BMP_temperature;BMP_pressure;BME280_temperature;BME280_humidity;BME280_pressure;Samples;Min_cycle;Max_cycle;Signal;HPM_P1;HPM_P2
2021/07/23 00:00:51;;;;;;;23.25;9.20;;;;;;;16.37;68.57;101933.41;5071023;28;20031;-66
2021/07/23 00:03:17;;;;;;;23.38;9.15;;;;;;;16.33;68.72;101937.84;5074529;28;20031;-67
2021/07/23 00:05:42;;;;;;;22.65;9.00;;;;;;;16.28;68.79;101938.75;5074389;28;20459;-67
2021/07/23 00:08:07;;;;;;;23.52;9.35;;;;;;;16.17;69.12;101938.78;5074708;28;20142;-67
2021/07/23 00:10:33;;;;;;;23.58;9.45;;;;;;;16.10;69.26;101934.34;5074269;28;20070;-67
2021/07/23 00:12:59;;;;;;;24.85;9.18;;;;;;;16.12;69.15;101930.81;5074025;28;20364;-67
2021/07/23 00:15:24;;;;;;;23.38;9.00;;;;;;;16.01;69.46;101927.25;5074411;28;20033;-66
2021/07/23 00:17:50;;;;;;;23.35;9.30;;;;;;;16.06;69.33;101916.56;5074490;28;20086;-66
2021/07/23 00:20:15;;;;;;;23.52;9.38;;;;;;;15.96;69.49;101931.69;5074284;28;20089;-67
2021/07/23 00:22:41;;;;;;;23.60;9.57;;;;;;;15.94;69.79;101928.16;5074496;28;20056;-67
2021/07/23 00:25:07;;;;;;;23.10;9.38;;;;;;;15.90;70.01;101921.03;5074283;28;20025;-66
2021/07/23 00:27:32;;;;;;;23.67;9.43;;;;;;;15.88;70.03;101926.38;5074048;28;20052;-67
2021/07/23 00:29:57;;;;;;;23.23;9.77;;;;;;;15.88;69.78;101933.50;5074448;28;20031;-67
2021/07/23 00:32:22;;;;;;;23.08;9.32;;;;;;;15.83;70.02;101929.03;5073075;28;20032;-66
2021/07/23 00:34:48;;;;;;;23.38;9.15;;;;;;;15.84;70.20;101935.25;5074131;28;20066;-67
2021/07/23 00:37:13;;;;;;;24.17;9.70;;;;;;;15.92;69.64;101922.81;5074258;28;20129;-67
2021/07/23 00:39:39;;;;;;;23.60;9.20;;;;;;;15.95;69.26;101920.16;5073827;28;20490;-67
2021/07/23 00:42:04;;;;;;;22.88;9.30;;;;;;;15.93;69.57;101921.94;5074052;28;20028;-67
2021/07/23 00:44:29;;;;;;;23.17;9.43;;;;;;;15.88;69.64;101914.81;5073813;28;20024;-67
2021/07/23 00:46:57;;;;;;;24.48;9.77;;;;;;;15.79;69.96;101918.38;5073636;28;20029;-67
2021/07/23 00:49:23;;;;;;;23.88;9.30;;;;;;;15.75;69.90;101914.78;5073751;28;20029;-66
2021/07/23 00:51:49;;;;;;;23.65;9.52;;;;;;;15.73;70.29;101915.66;5073767;28;20029;-67
2021/07/23 00:54:16;;;;;;;23.30;9.85;;;;;;;15.67;70.36;101917.47;5073551;28;20111;-66
2021/07/23 00:56:42;;;;;;;22.35;9.23;;;;;;;15.54;71.23;101910.34;5073715;28;20021;-66
2021/07/23 00:59:08;;;;;;;23.02;9.73;;;;;;;15.52;71.04;101915.69;5073471;28;20031;-66
2021/07/23 01:01:33;;;;;;;24.48;9.60;;;;;;;15.48;70.99;101913.03;5073257;28;20378;-66
2021/07/23 01:03:58;;;;;;;24.20;9.90;;;;;;;15.47;71.04;101911.22;5073821;28;20027;-65
2021/07/23 01:06:24;;;;;;;23.33;9.48;;;;;;;15.44;71.08;101906.78;5073451;28;20467;-64
2021/07/23 01:08:49;;;;;;;22.48;9.63;;;;;;;15.40;71.38;101909.44;5073287;28;20021;-64
2021/07/23 01:11:15;;;;;;;23.58;9.20;;;;;;;15.29;71.41;101913.00;5073450;28;20037;-65
2021/07/23 01:13:41;;;;;;;23.25;9.40;;;;;;;15.26;72.05;101918.31;5073195;28;20028;-63
2021/07/23 01:16:06;;;;;;;25.48;9.98;;;;;;;15.23;71.81;101910.31;5073139;28;20025;-63
2021/07/23 01:18:32;;;;;;;22.92;9.27;;;;;;;15.22;72.10;101911.19;5073158;28;20234;-64
2021/07/23 01:21:00;;;;;;;23.85;9.40;;;;;;;15.15;72.41;101909.41;5073282;28;20036;-63
2021/07/23 01:23:30;;;;;;;23.10;9.00;;;;;;;15.08;72.07;101915.59;5072270;28;20479;-63
2021/07/23 01:26:00;;;;;;;23.27;9.82;;;;;;;14.94;72.99;101912.88;5073312;28;20035;-62
2021/07/23 01:28:27;;;;;;;23.38;9.25;;;;;;;14.90;73.28;101917.31;5073021;28;20024;-62
2021/07/23 01:30:53;;;;;;;24.48;9.80;;;;;;;14.85;73.31;101912.88;5072800;28;20390;-62
2021/07/23 01:33:18;;;;;;;24.38;9.70;;;;;;;14.75;74.02;101909.28;5073008;28;20099;-64
2021/07/23 01:35:44;;;;;;;24.38;9.90;;;;;;;14.69;74.42;101909.25;5072877;28;20026;-62
2021/07/23 01:38:10;;;;;;;23.48;9.52;;;;;;;14.67;74.32;101911.03;5072877;28;20028;-61
2021/07/23 01:40:36;;;;;;;22.83;9.40;;;;;;;14.71;74.27;101908.38;5073083;28;20063;-61
2021/07/23 01:43:01;;;;;;;23.08;9.38;;;;;;;14.68;74.56;101907.47;5072674;28;20046;-61
2021/07/23 01:45:27;;;;;;;22.17;9.55;;;;;;;14.70;74.18;101905.72;5072677;28;20056;-61
2021/07/23 01:47:53;;;;;;;23.00;9.40;;;;;;;14.62;74.43;101908.31;5072908;28;20024;-63
2021/07/23 01:50:22;;;;;;;22.95;9.38;;;;;;;14.56;74.82;101909.19;5072601;28;20050;-61
2021/07/23 01:52:47;;;;;;;23.40;9.27;;;;;;;14.57;75.30;101910.94;5072937;28;20360;-61
2021/07/23 01:55:12;;;;;;;24.88;9.85;;;;;;;14.58;74.92;101903.88;5073142;28;20082;-66
2021/07/23 01:57:38;;;;;;;23.30;9.63;;;;;;;14.53;74.96;101911.78;5072691;28;20078;-66
2021/07/23 02:00:07;;;;;;;23.15;9.70;;;;;;;14.51;74.98;101907.38;5072581;28;20016;-65
2021/07/23 02:02:34;;;;;;;23.38;9.65;;;;;;;14.47;75.17;101899.38;5072743;28;20013;-63
2021/07/23 02:05:00;;;;;;;25.13;10.13;;;;;;;14.41;75.49;101898.44;5072537;28;20078;-65
2021/07/23 02:07:27;;;;;;;25.02;9.98;;;;;;;14.34;76.04;101896.63;5072390;28;20033;-64
2021/07/23 02:09:53;;;;;;;23.73;9.75;;;;;;;14.22;76.41;101897.47;5072960;28;20024;-67
2021/07/23 02:12:18;;;;;;;24.85;10.10;;;;;;;14.19;76.93;101898.31;5072412;28;20078;-63
2021/07/23 02:14:43;;;;;;;24.80;10.00;;;;;;;14.18;76.88;101899.19;5072433;28;20020;-66
2021/07/23 02:17:09;;;;;;;23.98;10.13;;;;;;;14.16;76.82;101897.44;5072381;28;20060;-65
2021/07/23 02:19:34;;;;;;;24.13;10.32;;;;;;;14.18;77.12;101893.88;5072501;28;20021;-64
2021/07/23 02:21:59;;;;;;;23.73;10.48;;;;;;;14.07;77.24;101884.97;5072615;28;20059;-66
2021/07/23 02:24:24;;;;;;;24.58;9.98;;;;;;;14.02;77.23;101887.56;5072401;28;20021;-63
2021/07/23 02:26:50;;;;;;;23.00;9.70;;;;;;;13.95;77.62;101894.63;5072489;28;20035;-63
2021/07/23 02:29:16;;;;;;;25.88;9.90;;;;;;;13.84;77.85;101893.66;5072454;28;20024;-66
2021/07/23 02:31:41;;;;;;;24.75;10.40;;;;;;;13.88;78.51;101887.50;5072194;28;20439;-63
2021/07/23 02:34:07;;;;;;;24.33;9.85;;;;;;;13.82;78.95;101886.53;5072928;28;20063;-63
2021/07/23 02:36:32;;;;;;;24.58;10.43;;;;;;;13.95;78.49;101888.44;5076698;28;20081;-66
2021/07/23 02:38:58;;;;;;;24.25;10.02;;;;;;;13.87;78.38;101896.34;5076311;28;20382;-62
2021/07/23 02:41:23;;;;;;;24.30;10.48;;;;;;;13.80;78.52;101889.19;5076165;28;20028;-67
2021/07/23 02:43:49;;;;;;;23.63;10.48;;;;;;;13.80;79.11;101888.31;5076290;28;20029;-66
2021/07/23 02:46:15;;;;;;;26.42;10.82;;;;;;;13.77;78.92;101886.50;5076049;28;20052;-63
2021/07/23 02:48:40;;;;;;;24.42;10.60;;;;;;;13.68;79.46;101882.03;5075866;28;20508;-66
2021/07/23 02:51:06;;;;;;;23.73;10.30;;;;;;;13.75;79.00;101893.59;5075875;28;20101;-64
2021/07/23 02:53:31;;;;;;;24.45;10.27;;;;;;;13.77;78.99;101889.16;5075843;28;20028;-63
2021/07/23 02:55:56;;;;;;;23.77;10.27;;;;;;;13.72;78.79;101883.81;5076128;28;20360;-63
2021/07/23 02:58:22;;;;;;;23.70;10.23;;;;;;;13.68;78.97;101879.38;5074239;28;20032;-65
2021/07/23 03:00:47;;;;;;;24.05;10.77;;;;;;;13.64;79.07;101879.34;5075742;28;20029;-65
2021/07/23 03:03:12;;;;;;;23.85;10.35;;;;;;;13.57;79.05;101881.94;5075795;28;20031;-66
2021/07/23 03:05:38;;;;;;;23.90;10.40;;;;;;;13.50;79.29;101877.47;5075556;28;20033;-64
2021/07/23 03:08:04;;;;;;;23.92;10.93;;;;;;;13.36;79.65;101881.75;5075854;28;20021;-62
2021/07/23 03:10:30;;;;;;;23.38;10.68;;;;;;;13.28;79.74;101878.09;5076006;28;20095;-61
2021/07/23 03:12:55;;;;;;;24.02;10.35;;;;;;;13.20;80.43;101881.56;5075640;28;20107;-62
2021/07/23 03:15:20;;;;;;;25.05;10.95;;;;;;;13.14;81.58;101876.19;5075742;28;20360;-62
2021/07/23 03:17:46;;;;;;;24.85;10.43;;;;;;;13.17;81.33;101870.03;5075525;28;20036;-61
2021/07/23 03:20:12;;;;;;;23.52;10.52;;;;;;;13.19;81.18;101866.53;5075264;28;20540;-62
2021/07/23 03:22:37;;;;;;;23.27;10.27;;;;;;;13.23;81.36;101870.09;5075303;28;20024;-62
2021/07/23 03:25:02;;;;;;;23.85;10.05;;;;;;;13.22;80.91;101862.97;5075471;28;20047;-62
2021/07/23 03:27:28;;;;;;;23.20;10.30;;;;;;;13.12;80.74;101862.03;5075127;28;20043;-62
2021/07/23 03:29:54;;;;;;;23.45;10.32;;;;;;;13.10;80.43;101860.22;5075228;28;20021;-62
2021/07/23 03:32:20;;;;;;;23.42;10.63;;;;;;;13.10;80.24;101857.56;5075647;28;20027;-61
2021/07/23 03:34:45;;;;;;;23.20;10.40;;;;;;;13.04;80.90;101858.41;5075244;28;20466;-61
2021/07/23 03:37:10;;;;;;;23.45;10.85;;;;;;;13.05;80.93;101858.41;5075333;28;20028;-65
2021/07/23 03:39:35;;;;;;;24.63;10.98;;;;;;;13.09;80.76;101861.97;5075249;28;20413;-62
2021/07/23 03:42:01;;;;;;;23.45;10.65;;;;;;;13.06;80.72;101861.94;5074930;28;20029;-63
2021/07/23 03:44:26;;;;;;;24.05;10.73;;;;;;;12.95;81.51;101860.97;5075177;28;20162;-61
2021/07/23 03:46:51;;;;;;;23.92;11.73;;;;;;;12.94;82.02;101851.22;5074265;28;20032;-62
2021/07/23 03:49:17;;;;;;;24.80;11.55;;;;;;;13.00;82.00;101845.97;5074910;28;20021;-62
2021/07/23 03:51:42;;;;;;;24.23;11.07;;;;;;;13.01;82.37;101853.06;5074756;28;20051;-61
2021/07/23 03:54:08;;;;;;;25.00;11.50;;;;;;;13.04;82.04;101853.97;5074664;28;20023;-61
2021/07/23 03:56:33;;;;;;;25.92;11.68;;;;;;;13.08;82.53;101849.59;5074772;28;20024;-61
2021/07/23 03:58:59;;;;;;;24.85;11.27;;;;;;;13.05;83.09;101850.44;5074979;28;20058;-62
2021/07/23 04:01:25;;;;;;;24.50;11.38;;;;;;;13.02;82.49;101855.72;5074796;28;20025;-62
2021/07/23 04:03:50;;;;;;;25.88;12.15;;;;;;;12.93;82.20;101854.72;5074622;28;20521;-65
2021/07/23 04:06:15;;;;;;;25.00;11.65;;;;;;;12.89;82.99;101852.06;5074501;28;20040;-62
2021/07/23 04:08:41;;;;;;;25.25;11.38;;;;;;;12.91;83.11;101844.97;5075006;28;20386;-62
2021/07/23 04:11:13;;;;;;;24.30;11.18;;;;;;;12.89;83.20;101849.41;5074784;28;20474;-62
2021/07/23 04:13:38;;;;;;;25.23;12.02;;;;;;;12.83;83.72;101857.28;5073394;28;20029;-62
2021/07/23 04:16:04;;;;;;;25.40;12.20;;;;;;;12.93;84.23;101847.69;5074324;28;20024;-62
2021/07/23 04:18:29;;;;;;;25.48;11.77;;;;;;;12.84;84.70;101847.56;5074143;28;20074;-61
2021/07/23 04:20:54;;;;;;;25.80;11.82;;;;;;;12.84;85.38;101855.53;5074781;28;20017;-62
2021/07/23 04:23:20;;;;;;;24.35;11.88;;;;;;;12.85;85.50;101849.34;5074430;28;20024;-62
2021/07/23 04:25:45;;;;;;;24.50;11.35;;;;;;;12.78;85.74;101853.69;5074632;28;20029;-63
2021/07/23 04:28:10;;;;;;;25.65;12.07;;;;;;;12.88;85.88;101846.72;5074237;28;20052;-61
2021/07/23 04:30:35;;;;;;;25.90;12.02;;;;;;;12.83;85.97;101843.13;5073867;28;20028;-62
2021/07/23 04:33:01;;;;;;;26.63;12.55;;;;;;;12.92;85.74;101848.53;5074261;28;20067;-61
2021/07/23 04:35:26;;;;;;;29.13;13.20;;;;;;;12.97;85.90;101851.25;5074026;28;20032;-63
2021/07/23 04:37:52;;;;;;;24.80;11.25;;;;;;;13.09;85.07;101846.03;5074094;28;20020;-62
2021/07/23 04:40:17;;;;;;;25.05;11.20;;;;;;;13.13;84.62;101847.84;5074283;28;20428;-62
2021/07/23 04:42:42;;;;;;;24.88;11.85;;;;;;;13.08;85.05;101850.47;5073797;28;20059;-64
2021/07/23 04:45:08;;;;;;;26.15;11.73;;;;;;;13.11;85.16;101854.94;5073795;28;20028;-63
2021/07/23 04:47:33;;;;;;;28.80;12.10;;;;;;;13.06;85.42;101853.97;5073807;28;20039;-62
2021/07/23 04:50:01;;;;;;;24.98;11.88;;;;;;;13.12;85.87;101855.81;5073492;28;20067;-61
2021/07/23 04:52:26;;;;;;;25.42;12.10;;;;;;;13.16;85.64;101858.50;5073640;28;20028;-61
2021/07/23 04:54:51;;;;;;;26.75;12.57;;;;;;;13.18;85.51;101851.47;5074051;28;20142;-62
2021/07/23 04:57:24;;;;;;;25.85;12.75;;;;;;;13.22;85.48;101857.66;5073461;28;20211;-64
2021/07/23 04:59:49;;;;;;;25.55;12.48;;;;;;;13.32;85.49;101848.03;5073609;28;20036;-63
2021/07/23 05:02:15;;;;;;;27.67;13.13;;;;;;;13.40;85.01;101849.03;5073628;28;20539;-62
2021/07/23 05:04:40;;;;;;;27.88;13.00;;;;;;;13.49;84.70;101850.88;5073446;28;20082;-62
2021/07/23 05:07:05;;;;;;;27.33;12.98;;;;;;;13.50;84.14;101847.31;5073135;28;20032;-62
2021/07/23 05:09:31;;;;;;;28.98;13.27;;;;;;;13.56;84.22;101848.28;5073519;28;20459;-62
2021/07/23 05:11:56;;;;;;;26.00;12.30;;;;;;;13.61;84.13;101850.97;5073306;28;20025;-62
2021/07/23 05:14:22;;;;;;;26.50;12.80;;;;;;;13.76;83.23;101859.06;5073402;28;20170;-62
2021/07/23 05:16:48;;;;;;;26.17;13.38;;;;;;;13.77;83.36;101857.28;5073085;28;20033;-62
2021/07/23 05:19:15;;;;;;;26.95;13.63;;;;;;;13.82;83.10;101850.25;5073353;28;20036;-62
2021/07/23 05:21:42;;;;;;;26.17;12.90;;;;;;;13.85;83.04;101844.03;5073278;28;20024;-63
2021/07/23 05:24:07;;;;;;;27.98;13.50;;;;;;;13.93;82.57;101842.34;5072959;28;20110;-62
2021/07/23 05:26:38;;;;;;;28.08;13.48;;;;;;;13.95;83.00;101849.44;5072853;28;20460;-61
2021/07/23 05:29:08;;;;;;;28.75;14.23;;;;;;;13.99;82.97;101844.16;5071546;28;20045;-62
2021/07/23 05:31:34;;;;;;;28.45;14.60;;;;;;;14.02;82.66;101847.69;5075987;28;20375;-64
2021/07/23 05:34:01;;;;;;;28.90;13.98;;;;;;;14.08;82.12;101855.72;5078278;28;20029;-66
2021/07/23 05:36:26;;;;;;;28.92;14.73;;;;;;;14.11;82.17;101852.19;5078058;28;20379;-66
2021/07/23 05:38:53;;;;;;;28.15;14.40;;;;;;;14.15;82.24;101848.66;5078814;28;20048;-64
2021/07/23 05:41:18;;;;;;;28.58;14.50;;;;;;;14.23;81.95;101846.94;5078741;28;20061;-65
2021/07/23 05:43:43;;;;;;;30.30;15.40;;;;;;;14.27;81.44;101840.75;5076348;28;20146;-64
2021/07/23 05:46:09;;;;;;;27.27;14.75;;;;;;;14.36;81.50;101836.34;5076781;28;20115;-67
2021/07/23 05:48:38;;;;;;;27.55;13.73;;;;;;;14.46;80.81;101839.06;5078355;28;20425;-65
2021/07/23 05:51:05;;;;;;;28.98;14.30;;;;;;;14.52;80.45;101834.63;5076880;28;20109;-62
2021/07/23 05:53:31;;;;;;;27.50;14.55;;;;;;;14.56;80.52;101833.78;5074361;28;20070;-63
2021/07/23 05:55:59;;;;;;;27.98;14.93;;;;;;;14.55;80.00;101832.91;5076734;28;20494;-63
2021/07/23 05:58:28;;;;;;;27.63;14.07;;;;;;;14.56;80.53;101840.00;5076206;28;20111;-63
2021/07/23 06:00:54;;;;;;;26.55;13.88;;;;;;;14.64;79.91;101832.94;5077934;28;20386;-64
2021/07/23 06:03:20;;;;;;;28.30;14.55;;;;;;;14.70;80.14;101833.88;5074451;28;20028;-65
2021/07/23 06:05:45;;;;;;;30.13;14.10;;;;;;;14.79;80.04;101836.53;5077997;28;20124;-66
2021/07/23 06:08:10;;;;;;;27.23;14.60;;;;;;;14.85;79.16;101836.53;5073395;28;20037;-64
2021/07/23 06:10:36;;;;;;;27.58;15.05;;;;;;;14.94;79.27;101841.91;5074470;28;20020;-63
2021/07/23 06:13:01;;;;;;;27.00;14.52;;;;;;;14.92;78.16;101833.00;5076024;28;20024;-64
2021/07/23 06:15:27;;;;;;;28.70;14.50;;;;;;;14.94;78.50;101836.59;5075644;28;20027;-64
2021/07/23 06:17:52;;;;;;;27.92;14.45;;;;;;;15.04;78.94;101832.13;5074760;28;20422;-65
2021/07/23 06:20:18;;;;;;;28.15;14.18;;;;;;;15.09;78.55;101832.19;5076282;28;20402;-63
2021/07/23 06:22:43;;;;;;;27.42;14.68;;;;;;;15.10;79.07;101834.84;5076225;28;20029;-63
2021/07/23 06:25:09;;;;;;;32.40;13.65;;;;;;;15.23;77.59;101832.16;5073827;28;20116;-65
2021/07/23 06:27:34;;;;;;;28.00;14.75;;;;;;;15.31;77.93;101836.63;5078971;28;20098;-65
2021/07/23 06:30:00;;;;;;;27.20;13.93;;;;;;;15.31;78.10;101831.28;5076252;28;20418;-63
2021/07/23 06:32:27;;;;;;;28.80;14.23;;;;;;;15.38;79.30;101836.59;5073483;28;20028;-65
2021/07/23 06:34:53;;;;;;;27.27;14.00;;;;;;;15.42;77.60;101833.06;5078144;28;20081;-64
2021/07/23 06:37:21;;;;;;;27.30;13.52;;;;;;;15.50;77.32;101836.63;5074174;28;20024;-64
2021/07/23 06:39:48;;;;;;;28.90;13.60;;;;;;;15.58;76.60;101825.94;5075819;28;20021;-64
2021/07/23 06:42:14;;;;;;;28.27;13.20;;;;;;;15.65;76.43;101833.97;5073968;28;20116;-65
2021/07/23 06:44:39;;;;;;;26.20;13.35;;;;;;;15.74;77.34;101829.50;5074806;28;20025;-65
2021/07/23 06:47:04;;;;;;;27.02;13.25;;;;;;;15.84;76.78;101828.63;5075656;28;20224;-64
2021/07/23 06:49:30;;;;;;;29.77;13.57;;;;;;;15.93;78.48;101835.72;5073947;28;20082;-66
2021/07/23 06:51:55;;;;;;;23.90;11.48;;;;;;;15.97;75.56;101833.03;5075798;28;20497;-65
2021/07/23 06:54:20;;;;;;;24.58;11.15;;;;;;;15.98;74.70;101837.47;5078754;28;20494;-64
2021/07/23 06:56:46;;;;;;;24.02;10.77;;;;;;;16.04;75.16;101841.91;5077241;28;20028;-63
2021/07/23 06:59:11;;;;;;;25.33;11.02;;;;;;;16.13;74.57;101839.19;5077514;28;20013;-65
2021/07/23 07:01:36;;;;;;;23.80;10.82;;;;;;;16.18;74.03;101845.44;5078972;28;20505;-66
2021/07/23 07:04:01;;;;;;;24.92;11.55;;;;;;;16.26;73.73;101845.41;5076528;28;20383;-64
2021/07/23 07:06:27;;;;;;;24.98;11.18;;;;;;;16.31;73.97;101848.94;5075189;28;20025;-65
2021/07/23 07:08:52;;;;;;;25.63;11.27;;;;;;;16.37;73.72;101845.38;5078013;28;20525;-64
2021/07/23 07:11:17;;;;;;;23.70;10.02;;;;;;;16.41;72.23;101844.47;5077928;28;20040;-64
2021/07/23 07:13:43;;;;;;;24.70;10.95;;;;;;;16.43;72.56;101849.81;5077616;28;20387;-64
2021/07/23 07:16:09;;;;;;;26.17;11.30;;;;;;;16.51;72.41;101845.28;5076330;28;20020;-64
2021/07/23 07:18:34;;;;;;;24.40;11.13;;;;;;;16.59;72.62;101846.16;5073916;28;20070;-65
2021/07/23 07:21:00;;;;;;;23.92;10.98;;;;;;;16.70;72.46;101846.09;5077934;28;20070;-65
2021/07/23 07:23:25;;;;;;;25.65;10.50;;;;;;;16.79;71.17;101842.47;5082102;28;20020;-64
2021/07/23 07:25:50;;;;;;;24.02;10.48;;;;;;;16.83;70.23;101841.56;5081235;28;20470;-65
2021/07/23 07:28:16;;;;;;;22.77;9.90;;;;;;;16.92;70.42;101841.56;5081863;28;20024;-64
2021/07/23 07:30:46;;;;;;;22.98;10.02;;;;;;;16.94;68.61;101849.56;5081048;28;20028;-65
2021/07/23 07:33:11;;;;;;;23.20;9.50;;;;;;;16.96;68.38;101843.31;5079522;28;20470;-63
2021/07/23 07:35:36;;;;;;;23.52;10.48;;;;;;;17.06;69.83;101852.16;5079043;28;20044;-63
2021/07/23 07:38:02;;;;;;;24.15;10.40;;;;;;;17.13;69.66;101845.88;5080898;28;20032;-63
2021/07/23 07:40:27;;;;;;;23.13;10.85;;;;;;;17.19;69.08;101839.59;5081714;28;20033;-65
2021/07/23 07:42:52;;;;;;;24.15;11.43;;;;;;;17.25;68.18;101850.22;5082225;28;20027;-65
2021/07/23 07:45:18;;;;;;;24.00;11.07;;;;;;;17.37;68.40;101844.81;5081009;28;20394;-65
2021/07/23 07:47:43;;;;;;;24.33;11.20;;;;;;;17.36;66.83;101847.50;5081297;28;20114;-65
2021/07/23 07:50:09;;;;;;;23.77;10.23;;;;;;;17.48;67.12;101841.16;5079807;28;20487;-64
2021/07/23 07:52:34;;;;;;;22.80;10.32;;;;;;;17.49;66.11;101842.91;5081240;28;20108;-62
2021/07/23 07:55:00;;;;;;;23.50;9.90;;;;;;;17.56;66.32;101839.28;5079895;28;20111;-62
2021/07/23 07:57:25;;;;;;;22.45;9.65;;;;;;;17.66;64.97;101840.09;5079118;28;20035;-62
2021/07/23 07:59:51;;;;;;;23.10;9.95;;;;;;;17.72;63.99;101835.59;5078735;28;20027;-62
2021/07/23 08:02:17;;;;;;;22.92;9.95;;;;;;;17.82;64.16;101839.03;5075498;28;20029;-62
2021/07/23 08:04:42;;;;;;;23.15;9.45;;;;;;;17.92;63.98;101838.06;5074344;28;20467;-62
2021/07/23 08:07:10;;;;;;;22.95;9.77;;;;;;;17.97;62.76;101830.03;5074103;28;20040;-62
2021/07/23 08:09:52;;;;;;;22.50;10.20;;;;;;;18.09;64.04;101834.34;5074556;28;20033;-62
2021/07/23 08:12:19;;;;;;;22.70;10.02;;;;;;;18.15;62.71;101828.91;5074411;28;20024;-61
2021/07/23 08:14:45;;;;;;;21.60;9.10;;;;;;;18.21;63.11;101834.19;5074626;28;20035;-61
2021/07/23 08:17:10;;;;;;;23.80;10.18;;;;;;;18.37;62.94;101832.22;5074094;28;20379;-65
2021/07/23 08:19:37;;;;;;;21.95;9.20;;;;;;;18.58;62.50;101832.84;5074328;28;20446;-65
2021/07/23 08:22:03;;;;;;;23.55;8.80;;;;;;;18.67;61.15;101832.72;5076021;28;20363;-66
2021/07/23 08:24:29;;;;;;;22.35;8.55;;;;;;;18.81;61.29;101829.84;5077158;28;20474;-65
2021/07/23 08:26:54;;;;;;;22.45;8.85;;;;;;;18.89;60.04;101824.44;5076688;28;20043;-64
2021/07/23 08:29:20;;;;;;;23.08;9.65;;;;;;;18.91;60.13;101830.63;5080861;28;20020;-64
2021/07/23 08:31:45;;;;;;;22.58;9.25;;;;;;;19.03;59.98;101827.75;5075756;28;20043;-65
2021/07/23 08:34:10;;;;;;;24.23;10.10;;;;;;;19.17;59.92;101822.19;5080551;28;20017;-66
2021/07/23 08:36:36;;;;;;;23.63;9.75;;;;;;;19.41;59.66;101820.00;5080851;28;20035;-65
2021/07/23 08:39:01;;;;;;;23.10;9.55;;;;;;;19.56;58.77;101818.88;5080551;28;20375;-65
2021/07/23 08:41:27;;;;;;;23.17;9.60;;;;;;;19.58;57.81;101809.00;5078488;28;20029;-65
2021/07/23 08:43:52;;;;;;;22.75;10.07;;;;;;;19.67;58.22;101798.09;5078471;28;20020;-65
2021/07/23 08:46:18;;;;;;;23.42;10.60;;;;;;;20.08;57.80;101801.81;5074528;28;20032;-67
2021/07/23 08:48:43;;;;;;;22.73;10.00;;;;;;;20.42;55.60;101805.59;5070864;28;20032;-66
2021/07/23 08:51:09;;;;;;;22.80;9.98;;;;;;;20.87;54.86;101801.00;5073504;28;20472;-65
2021/07/23 08:53:34;;;;;;;21.63;9.27;;;;;;;20.97;54.11;101795.41;5072835;28;20482;-66
2021/07/23 08:55:59;;;;;;;22.85;9.38;;;;;;;20.93;53.69;101793.75;5073776;28;20043;-66
2021/07/23 08:58:25;;;;;;;22.58;9.05;;;;;;;20.85;53.68;101794.81;5078976;28;20024;-66
2021/07/23 09:00:57;;;;;;;22.25;9.40;;;;;;;20.74;55.09;101796.84;5059393;28;20200;-66
2021/07/23 09:03:27;;;;;;;22.20;9.20;;;;;;;20.67;54.27;101792.53;5070269;28;20039;-66
2021/07/23 09:05:52;;;;;;;21.92;8.60;;;;;;;20.89;53.90;101785.72;5072509;28;20021;-66
2021/07/23 09:08:19;;;;;;;22.33;9.00;;;;;;;21.01;52.57;101778.28;5068033;28;20169;-66
2021/07/23 09:10:46;;;;;;;20.52;8.30;;;;;;;21.11;53.39;101778.97;5070179;28;20021;-66
2021/07/23 09:13:23;;;;;;;20.35;8.02;;;;;;;21.15;52.35;101778.84;5071242;28;20035;-64
2021/07/23 09:15:49;;;;;;;21.48;8.18;;;;;;;21.21;52.22;101767.06;5073233;28;20047;-65
2021/07/23 09:18:41;;;;;;;22.73;8.20;;;;;;;21.16;52.50;101772.53;5070130;28;20037;-61
2021/07/23 09:21:07;;;;;;;22.55;9.13;;;;;;;21.13;51.26;101767.25;5067260;28;20036;-61
2021/07/23 09:23:37;;;;;;;20.77;7.78;;;;;;;21.28;50.75;101765.97;5069251;28;20024;-61
2021/07/23 09:26:12;;;;;;;19.77;6.80;;;;;;;21.39;49.05;101762.97;5068563;28;20024;-61
2021/07/23 09:28:39;;;;;;;21.70;7.88;;;;;;;21.43;50.00;101764.69;5068255;28;20021;-61
2021/07/23 09:31:06;;;;;;;21.95;7.90;;;;;;;21.50;51.20;101762.72;5064000;28;20069;-62
2021/07/23 09:33:40;;;;;;;21.38;8.55;;;;;;;21.55;50.56;101759.03;5075336;28;20379;-63
2021/07/23 09:36:08;;;;;;;20.63;7.05;;;;;;;21.70;48.57;101767.59;5071972;28;20048;-63
2021/07/23 09:38:40;;;;;;;19.60;6.90;;;;;;;21.93;46.80;101759.75;5073744;28;20459;-62
2021/07/23 09:41:08;;;;;;;20.17;7.22;;;;;;;22.29;48.00;101761.38;5064881;28;20025;-62
2021/07/23 09:43:45;;;;;;;20.20;7.40;;;;;;;22.54;48.50;101752.59;5072524;28;20100;-62
2021/07/23 09:46:16;;;;;;;22.08;8.23;;;;;;;22.54;48.60;101760.66;5072402;28;20097;-62
2021/07/23 09:48:42;;;;;;;22.08;7.72;;;;;;;22.61;47.88;101759.53;5070375;28;20039;-62
2021/07/23 09:51:07;;;;;;;20.88;7.53;;;;;;;22.66;47.37;101752.22;5073896;28;20124;-62
2021/07/23 09:53:35;;;;;;;20.38;7.13;;;;;;;22.80;46.49;101755.34;5071103;28;20111;-63
2021/07/23 09:56:05;;;;;;;20.52;7.15;;;;;;;22.76;43.80;101750.97;5065345;28;20029;-62
2021/07/23 09:58:30;;;;;;;20.52;7.63;;;;;;;23.37;45.97;101757.06;5070620;28;20506;-62
2021/07/23 10:00:56;;;;;;;19.75;6.82;;;;;;;24.32;42.41;101752.72;5072725;28;20060;-62
2021/07/23 10:03:26;;;;;;;21.05;8.48;;;;;;;24.91;39.68;101748.56;5069670;28;20048;-62
2021/07/23 10:06:10;;;;;;;19.85;7.47;;;;;;;26.36;40.49;101753.00;5070543;28;20033;-65
2021/07/23 10:08:38;;;;;;;20.17;7.68;;;;;;;27.62;36.39;101742.19;5065944;28;20052;-65
2021/07/23 10:11:07;;;;;;;20.58;7.50;;;;;;;28.65;32.88;101750.13;5070445;28;20077;-64
2021/07/23 10:13:38;;;;;;;19.83;7.20;;;;;;;29.62;32.16;101746.22;5078553;28;20025;-66
2021/07/23 10:16:08;;;;;;;20.95;7.75;;;;;;;30.28;31.07;101746.63;5071125;28;20082;-65
2021/07/23 10:18:38;;;;;;;20.67;7.80;;;;;;;30.94;30.53;101739.50;5065837;28;20112;-66
2021/07/23 10:21:03;;;;;;;19.83;6.90;;;;;;;31.48;28.32;101737.69;5069543;28;20020;-65
2021/07/23 10:23:29;;;;;;;19.63;6.70;;;;;;;31.79;27.01;101743.72;5067090;28;20029;-63
2021/07/23 10:25:57;;;;;;;19.15;6.63;;;;;;;32.36;26.04;101730.53;5068593;28;20691;-63
2021/07/23 10:28:40;;;;;;;19.70;7.13;;;;;;;32.36;27.28;101733.25;5071803;28;20123;-64
2021/07/23 10:31:18;;;;;;;19.15;6.50;;;;;;;32.85;26.69;101726.84;5074325;28;20043;-64
2021/07/23 10:34:00;;;;;;;21.38;7.65;;;;;;;33.43;27.49;101729.69;5074424;28;20460;-66
2021/07/23 10:36:25;;;;;;;19.48;7.05;;;;;;;33.84;25.70;101727.41;5077659;28;20103;-66
2021/07/23 10:39:06;;;;;;;19.48;6.93;;;;;;;34.05;26.55;101717.44;5077648;28;20075;-66
2021/07/23 10:41:32;;;;;;;19.30;6.43;;;;;;;34.14;23.26;101710.31;5074936;28;20434;-66
2021/07/23 10:43:57;;;;;;;18.55;5.90;;;;;;;34.28;23.43;101703.72;5077831;28;20078;-65
2021/07/23 10:46:47;;;;;;;19.55;6.32;;;;;;;34.94;24.64;101699.13;5077662;28;20372;-64
2021/07/23 10:49:24;;;;;;;19.55;6.45;;;;;;;35.14;24.14;101702.91;5075554;28;20055;-66
2021/07/23 10:51:50;;;;;;;19.42;6.20;;;;;;;34.85;22.76;101696.19;5074214;28;20048;-65
2021/07/23 10:54:17;;;;;;;18.55;6.10;;;;;;;34.75;22.82;101693.31;5075067;28;21061;-64
2021/07/23 10:57:00;;;;;;;19.40;6.90;;;;;;;35.29;23.16;101678.72;5081303;28;20048;-66
2021/07/23 10:59:38;;;;;;;19.05;6.88;;;;;;;35.02;23.50;101680.97;5075885;28;20035;-66
2021/07/23 11:02:15;;;;;;;19.08;6.53;;;;;;;34.95;22.91;101679.81;5080979;28;20471;-67
2021/07/23 11:04:48;;;;;;;18.63;6.40;;;;;;;34.69;22.50;101677.41;5075735;28;20032;-65
2021/07/23 11:07:17;;;;;;;18.83;6.60;;;;;;;34.92;22.44;101671.81;5077984;28;20419;-64
2021/07/23 11:09:45;;;;;;;19.98;7.38;;;;;;;34.86;23.50;101678.72;5069438;28;20024;-62